sensor_id;sensor_type;location;lat;lon;timestamp;P1;durP1;ratioP1;P2;durP2;ratioP2
49614;SDS011;35517;45.272;9.984;2022-09-21T00:01:05;3.45;;;1.75;;
49614;SDS011;35517;45.272;9.984;2022-09-21T00:03:32;5.03;;;1.70;;
49614;SDS011;35517;45.272;9.984;2022-09-21T00:06:05;4.97;;;1.50;;
49614;SDS011;35517;45.272;9.984;2022-09-21T00:08:32;3.05;;;1.83;;
49614;SDS011;35517;45.272;9.984;2022-09-21T00:10:59;4.82;;;1.67;;
49614;SDS011;35517;45.272;9.984;2022-09-21T00:13:26;13.20;;;2.97;;
49614;SDS011;35517;45.272;9.984;2022-09-21T00:15:53;2.42;;;1.50;;
49614;SDS011;35517;45.272;9.984;2022-09-21T00:18:20;4.70;;;1.40;;
49614;SDS011;35517;45.272;9.984;2022-09-21T00:20:47;1.90;;;1.25;;
49614;SDS011;35517;45.272;9.984;2022-09-21T00:23:14;3.83;;;1.42;;
49614;SDS011;35517;45.272;9.984;2022-09-21T00:25:41;1.83;;;1.05;;
49614;SDS011;35517;45.272;9.984;2022-09-21T00:28:08;3.53;;;1.50;;
49614;SDS011;35517;45.272;9.984;2022-09-21T00:30:35;2.63;;;1.63;;
49614;SDS011;35517;45.272;9.984;2022-09-21T00:33:02;4.75;;;1.58;;
49614;SDS011;35517;45.272;9.984;2022-09-21T00:35:29;3.13;;;1.23;;
49614;SDS011;35517;45.272;9.984;2022-09-21T00:37:58;5.57;;;1.60;;
49614;SDS011;35517;45.272;9.984;2022-09-21T00:40:25;6.20;;;1.80;;
49614;SDS011;35517;45.272;9.984;2022-09-21T00:42:52;3.72;;;1.75;;
49614;SDS011;35517;45.272;9.984;2022-09-21T00:45:18;4.93;;;1.90;;
49614;SDS011;35517;45.272;9.984;2022-09-21T00:47:49;2.25;;;1.42;;
49614;SDS011;35517;45.272;9.984;2022-09-21T00:50:20;2.25;;;1.42;;
49614;SDS011;35517;45.272;9.984;2022-09-21T00:52:51;7.75;;;2.85;;
49614;SDS011;35517;45.272;9.984;2022-09-21T00:55:20;3.80;;;1.90;;
49614;SDS011;35517;45.272;9.984;2022-09-21T00:57:48;4.95;;;2.50;;
49614;SDS011;35517;45.272;9.984;2022-09-21T01:00:17;2.80;;;1.90;;
49614;SDS011;35517;45.272;9.984;2022-09-21T01:02:43;5.68;;;2.10;;
49614;SDS011;35517;45.272;9.984;2022-09-21T01:05:11;2.20;;;1.60;;
49614;SDS011;35517;45.272;9.984;2022-09-21T01:07:39;5.65;;;2.28;;
49614;SDS011;35517;45.272;9.984;2022-09-21T01:10:11;4.85;;;1.88;;
49614;SDS011;35517;45.272;9.984;2022-09-21T01:30:37;3.35;;;1.92;;
49614;SDS011;35517;45.272;9.984;2022-09-21T01:33:06;4.45;;;1.95;;
49614;SDS011;35517;45.272;9.984;2022-09-21T01:35:45;6.45;;;2.30;;
49614;SDS011;35517;45.272;9.984;2022-09-21T01:40:51;2.53;;;1.60;;
49614;SDS011;35517;45.272;9.984;2022-09-21T01:43:22;5.90;;;2.33;;
49614;SDS011;35517;45.272;9.984;2022-09-21T01:45:50;3.83;;;2.38;;
49614;SDS011;35517;45.272;9.984;2022-09-21T01:48:19;5.35;;;1.65;;
49614;SDS011;35517;45.272;9.984;2022-09-21T01:50:53;2.78;;;1.52;;
49614;SDS011;35517;45.272;9.984;2022-09-21T01:53:30;1.88;;;1.40;;
49614;SDS011;35517;45.272;9.984;2022-09-21T01:58:47;3.85;;;1.35;;
49614;SDS011;35517;45.272;9.984;2022-09-21T02:01:16;4.47;;;1.85;;
49614;SDS011;35517;45.272;9.984;2022-09-21T02:03:46;1.60;;;0.93;;
49614;SDS011;35517;45.272;9.984;2022-09-21T02:06:15;3.72;;;1.38;;
49614;SDS011;35517;45.272;9.984;2022-09-21T02:08:42;1.95;;;1.30;;
49614;SDS011;35517;45.272;9.984;2022-09-21T02:11:09;4.18;;;1.00;;
49614;SDS011;35517;45.272;9.984;2022-09-21T02:13:43;2.03;;;1.08;;
49614;SDS011;35517;45.272;9.984;2022-09-21T02:16:15;4.53;;;1.33;;
49614;SDS011;35517;45.272;9.984;2022-09-21T02:21:34;6.20;;;1.85;;
49614;SDS011;35517;45.272;9.984;2022-09-21T02:26:33;2.25;;;1.13;;
49614;SDS011;35517;45.272;9.984;2022-09-21T02:35:00;3.70;;;1.30;;
49614;SDS011;35517;45.272;9.984;2022-09-21T02:42:43;4.38;;;1.35;;
49614;SDS011;35517;45.272;9.984;2022-09-21T02:45:30;3.78;;;1.58;;
49614;SDS011;35517;45.272;9.984;2022-09-21T02:48:00;2.30;;;1.52;;
49614;SDS011;35517;45.272;9.984;2022-09-21T02:50:35;5.10;;;1.63;;
49614;SDS011;35517;45.272;9.984;2022-09-21T02:53:04;4.07;;;1.60;;
49614;SDS011;35517;45.272;9.984;2022-09-21T02:55:31;3.05;;;1.75;;
49614;SDS011;35517;45.272;9.984;2022-09-21T02:58:00;2.05;;;1.58;;
49614;SDS011;35517;45.272;9.984;2022-09-21T03:00:28;2.53;;;1.85;;
49614;SDS011;35517;45.272;9.984;2022-09-21T03:02:55;4.65;;;1.52;;
49614;SDS011;35517;45.272;9.984;2022-09-21T03:05:21;3.10;;;1.48;;
49614;SDS011;35517;45.272;9.984;2022-09-21T03:07:48;6.07;;;1.35;;
49614;SDS011;35517;45.272;9.984;2022-09-21T03:10:14;6.57;;;1.23;;
49614;SDS011;35517;45.272;9.984;2022-09-21T03:12:41;4.47;;;1.67;;
49614;SDS011;35517;45.272;9.984;2022-09-21T03:15:09;1.45;;;1.05;;
49614;SDS011;35517;45.272;9.984;2022-09-21T03:17:35;2.97;;;1.20;;
49614;SDS011;35517;45.272;9.984;2022-09-21T03:20:02;2.55;;;1.10;;
49614;SDS011;35517;45.272;9.984;2022-09-21T03:22:29;2.63;;;1.52;;
49614;SDS011;35517;45.272;9.984;2022-09-21T03:24:55;9.10;;;1.63;;
49614;SDS011;35517;45.272;9.984;2022-09-21T03:27:22;4.30;;;1.83;;
49614;SDS011;35517;45.272;9.984;2022-09-21T03:29:48;2.35;;;1.13;;
49614;SDS011;35517;45.272;9.984;2022-09-21T03:32:15;4.63;;;1.17;;
49614;SDS011;35517;45.272;9.984;2022-09-21T03:34:42;5.30;;;1.30;;
49614;SDS011;35517;45.272;9.984;2022-09-21T03:37:09;15.95;;;2.85;;
49614;SDS011;35517;45.272;9.984;2022-09-21T03:39:35;4.20;;;0.57;;
49614;SDS011;35517;45.272;9.984;2022-09-21T03:42:02;3.42;;;0.75;;
49614;SDS011;35517;45.272;9.984;2022-09-21T03:44:29;3.28;;;0.40;;
49614;SDS011;35517;45.272;9.984;2022-09-21T03:46:55;1.15;;;0.50;;
49614;SDS011;35517;45.272;9.984;2022-09-21T03:49:22;3.03;;;0.55;;
49614;SDS011;35517;45.272;9.984;2022-09-21T03:51:49;2.63;;;0.50;;
49614;SDS011;35517;45.272;9.984;2022-09-21T03:54:16;2.28;;;0.30;;
49614;SDS011;35517;45.272;9.984;2022-09-21T03:56:42;4.85;;;0.82;;
49614;SDS011;35517;45.272;9.984;2022-09-21T03:59:09;1.58;;;0.45;;
49614;SDS011;35517;45.272;9.984;2022-09-21T04:01:36;4.15;;;0.30;;
49614;SDS011;35517;45.272;9.984;2022-09-21T04:04:02;3.17;;;0.32;;
49614;SDS011;35517;45.272;9.984;2022-09-21T04:06:29;4.60;;;0.63;;
49614;SDS011;35517;45.272;9.984;2022-09-21T04:08:56;7.72;;;1.50;;
49614;SDS011;35517;45.272;9.984;2022-09-21T04:11:24;5.72;;;0.47;;
49614;SDS011;35517;45.272;9.984;2022-09-21T04:13:51;2.55;;;0.45;;
49614;SDS011;35517;45.272;9.984;2022-09-21T04:16:24;3.03;;;0.40;;
49614;SDS011;35517;45.272;9.984;2022-09-21T04:18:51;0.63;;;0.28;;
49614;SDS011;35517;45.272;9.984;2022-09-21T04:21:18;2.05;;;0.30;;
49614;SDS011;35517;45.272;9.984;2022-09-21T04:23:44;4.38;;;0.45;;
49614;SDS011;35517;45.272;9.984;2022-09-21T04:26:22;2.13;;;0.43;;
49614;SDS011;35517;45.272;9.984;2022-09-21T04:28:49;2.42;;;0.60;;
49614;SDS011;35517;45.272;9.984;2022-09-21T04:31:16;2.00;;;0.40;;
49614;SDS011;35517;45.272;9.984;2022-09-21T04:33:43;1.60;;;0.82;;
49614;SDS011;35517;45.272;9.984;2022-09-21T04:36:09;2.45;;;0.30;;
49614;SDS011;35517;45.272;9.984;2022-09-21T04:38:36;2.15;;;0.50;;
49614;SDS011;35517;45.272;9.984;2022-09-21T04:41:02;0.80;;;0.30;;
49614;SDS011;35517;45.272;9.984;2022-09-21T04:43:29;2.72;;;0.50;;
49614;SDS011;35517;45.272;9.984;2022-09-21T04:45:56;3.50;;;0.40;;
49614;SDS011;35517;45.272;9.984;2022-09-21T04:48:22;0.90;;;0.43;;
49614;SDS011;35517;45.272;9.984;2022-09-21T04:50:49;5.28;;;0.95;;
49614;SDS011;35517;45.272;9.984;2022-09-21T04:53:16;1.00;;;0.40;;
49614;SDS011;35517;45.272;9.984;2022-09-21T04:55:43;3.35;;;0.47;;
49614;SDS011;35517;45.272;9.984;2022-09-21T04:58:10;0.70;;;0.30;;
49614;SDS011;35517;45.272;9.984;2022-09-21T05:00:37;1.27;;;0.57;;
49614;SDS011;35517;45.272;9.984;2022-09-21T05:03:04;3.28;;;0.40;;
49614;SDS011;35517;45.272;9.984;2022-09-21T05:05:30;2.22;;;0.35;;
49614;SDS011;35517;45.272;9.984;2022-09-21T05:07:57;0.90;;;0.35;;
49614;SDS011;35517;45.272;9.984;2022-09-21T05:10:24;3.15;;;0.30;;
49614;SDS011;35517;45.272;9.984;2022-09-21T05:12:50;3.72;;;1.05;;
49614;SDS011;35517;45.272;9.984;2022-09-21T05:15:17;1.83;;;0.40;;
49614;SDS011;35517;45.272;9.984;2022-09-21T05:17:44;2.53;;;0.30;;
49614;SDS011;35517;45.272;9.984;2022-09-21T05:20:11;1.95;;;0.28;;
49614;SDS011;35517;45.272;9.984;2022-09-21T05:22:38;0.93;;;0.43;;
49614;SDS011;35517;45.272;9.984;2022-09-21T05:25:04;1.80;;;0.40;;
49614;SDS011;35517;45.272;9.984;2022-09-21T05:27:31;2.72;;;0.40;;
49614;SDS011;35517;45.272;9.984;2022-09-21T05:29:58;2.85;;;0.30;;
49614;SDS011;35517;45.272;9.984;2022-09-21T05:37:36;3.90;;;0.30;;
49614;SDS011;35517;45.272;9.984;2022-09-21T05:40:03;0.70;;;0.30;;
49614;SDS011;35517;45.272;9.984;2022-09-21T05:42:30;1.77;;;0.30;;
49614;SDS011;35517;45.272;9.984;2022-09-21T05:44:57;1.63;;;0.30;;
49614;SDS011;35517;45.272;9.984;2022-09-21T05:57:45;1.65;;;0.50;;
49614;SDS011;35517;45.272;9.984;2022-09-21T06:00:17;4.97;;;0.50;;
49614;SDS011;35517;45.272;9.984;2022-09-21T06:02:49;0.22;;;0.10;;
49614;SDS011;35517;45.272;9.984;2022-09-21T06:05:18;1.48;;;0.60;;
49614;SDS011;35517;45.272;9.984;2022-09-21T06:07:45;2.83;;;0.50;;
49614;SDS011;35517;45.272;9.984;2022-09-21T06:10:12;3.00;;;1.08;;
49614;SDS011;35517;45.272;9.984;2022-09-21T06:12:39;5.00;;;1.10;;
49614;SDS011;35517;45.272;9.984;2022-09-21T06:15:06;2.35;;;0.60;;
49614;SDS011;35517;45.272;9.984;2022-09-21T06:17:34;8.35;;;0.50;;
49614;SDS011;35517;45.272;9.984;2022-09-21T06:20:00;2.03;;;0.28;;
49614;SDS011;35517;45.272;9.984;2022-09-21T06:22:27;0.68;;;0.30;;
49614;SDS011;35517;45.272;9.984;2022-09-21T06:24:54;3.00;;;1.20;;
49614;SDS011;35517;45.272;9.984;2022-09-21T06:27:21;3.17;;;0.50;;
49614;SDS011;35517;45.272;9.984;2022-09-21T06:29:48;0.90;;;0.38;;
49614;SDS011;35517;45.272;9.984;2022-09-21T06:32:14;0.63;;;0.30;;
49614;SDS011;35517;45.272;9.984;2022-09-21T06:34:41;1.08;;;0.50;;
49614;SDS011;35517;45.272;9.984;2022-09-21T06:37:07;2.15;;;0.60;;
49614;SDS011;35517;45.272;9.984;2022-09-21T06:39:34;0.55;;;0.30;;
49614;SDS011;35517;45.272;9.984;2022-09-21T06:42:00;2.00;;;0.45;;
49614;SDS011;35517;45.272;9.984;2022-09-21T06:44:28;2.60;;;0.30;;
49614;SDS011;35517;45.272;9.984;2022-09-21T06:46:55;0.60;;;0.40;;
49614;SDS011;35517;45.272;9.984;2022-09-21T06:49:21;1.90;;;0.50;;
49614;SDS011;35517;45.272;9.984;2022-09-21T06:51:48;3.33;;;0.70;;
49614;SDS011;35517;45.272;9.984;2022-09-21T06:54:14;0.73;;;0.30;;
49614;SDS011;35517;45.272;9.984;2022-09-21T06:56:42;5.32;;;0.82;;
49614;SDS011;35517;45.272;9.984;2022-09-21T06:59:09;2.90;;;0.38;;
49614;SDS011;35517;45.272;9.984;2022-09-21T07:01:36;12.07;;;0.73;;
49614;SDS011;35517;45.272;9.984;2022-09-21T07:04:02;3.03;;;0.50;;
49614;SDS011;35517;45.272;9.984;2022-09-21T07:06:29;4.32;;;0.50;;
49614;SDS011;35517;45.272;9.984;2022-09-21T07:08:55;3.53;;;0.38;;
49614;SDS011;35517;45.272;9.984;2022-09-21T07:11:22;1.48;;;0.47;;
49614;SDS011;35517;45.272;9.984;2022-09-21T07:13:49;0.90;;;0.22;;
49614;SDS011;35517;45.272;9.984;2022-09-21T07:16:17;3.28;;;0.57;;
49614;SDS011;35517;45.272;9.984;2022-09-21T07:18:44;3.97;;;0.45;;
49614;SDS011;35517;45.272;9.984;2022-09-21T07:21:11;4.03;;;0.57;;
49614;SDS011;35517;45.272;9.984;2022-09-21T07:23:39;0.82;;;0.52;;
49614;SDS011;35517;45.272;9.984;2022-09-21T07:26:07;1.83;;;0.38;;
49614;SDS011;35517;45.272;9.984;2022-09-21T07:28:34;3.13;;;0.40;;
49614;SDS011;35517;45.272;9.984;2022-09-21T07:31:11;2.25;;;0.50;;
49614;SDS011;35517;45.272;9.984;2022-09-21T07:33:42;2.70;;;0.82;;
49614;SDS011;35517;45.272;9.984;2022-09-21T07:36:09;4.53;;;0.30;;
49614;SDS011;35517;45.272;9.984;2022-09-21T07:38:37;7.55;;;0.55;;
49614;SDS011;35517;45.272;9.984;2022-09-21T07:41:04;1.77;;;0.28;;
49614;SDS011;35517;45.272;9.984;2022-09-21T07:43:31;1.60;;;0.43;;
49614;SDS011;35517;45.272;9.984;2022-09-21T07:45:58;1.13;;;0.20;;
49614;SDS011;35517;45.272;9.984;2022-09-21T07:48:27;0.75;;;0.55;;
49614;SDS011;35517;45.272;9.984;2022-09-21T07:50:53;0.47;;;0.25;;
49614;SDS011;35517;45.272;9.984;2022-09-21T07:53:22;1.00;;;0.30;;
49614;SDS011;35517;45.272;9.984;2022-09-21T07:55:48;3.78;;;0.30;;
49614;SDS011;35517;45.272;9.984;2022-09-21T07:58:15;2.13;;;0.55;;
49614;SDS011;35517;45.272;9.984;2022-09-21T08:01:03;4.55;;;0.68;;
49614;SDS011;35517;45.272;9.984;2022-09-21T08:03:31;6.00;;;0.70;;
49614;SDS011;35517;45.272;9.984;2022-09-21T08:05:57;7.88;;;0.88;;
49614;SDS011;35517;45.272;9.984;2022-09-21T08:08:24;3.42;;;0.38;;
49614;SDS011;35517;45.272;9.984;2022-09-21T08:10:51;3.38;;;0.40;;
49614;SDS011;35517;45.272;9.984;2022-09-21T08:13:18;1.10;;;0.35;;
49614;SDS011;35517;45.272;9.984;2022-09-21T08:15:45;4.07;;;1.08;;
49614;SDS011;35517;45.272;9.984;2022-09-21T08:18:12;0.52;;;0.22;;
49614;SDS011;35517;45.272;9.984;2022-09-21T08:20:38;3.28;;;0.30;;
49614;SDS011;35517;45.272;9.984;2022-09-21T08:23:05;2.70;;;0.60;;
49614;SDS011;35517;45.272;9.984;2022-09-21T08:25:32;6.82;;;1.05;;
49614;SDS011;35517;45.272;9.984;2022-09-21T08:27:58;4.53;;;0.65;;
49614;SDS011;35517;45.272;9.984;2022-09-21T08:30:25;3.55;;;0.57;;
49614;SDS011;35517;45.272;9.984;2022-09-21T08:32:53;2.85;;;0.45;;
49614;SDS011;35517;45.272;9.984;2022-09-21T08:35:20;9.98;;;0.85;;
49614;SDS011;35517;45.272;9.984;2022-09-21T08:37:47;5.05;;;0.50;;
49614;SDS011;35517;45.272;9.984;2022-09-21T08:40:15;4.55;;;0.20;;
49614;SDS011;35517;45.272;9.984;2022-09-21T08:42:56;1.95;;;0.30;;
49614;SDS011;35517;45.272;9.984;2022-09-21T08:45:25;18.90;;;1.73;;
49614;SDS011;35517;45.272;9.984;2022-09-21T08:47:56;4.53;;;0.68;;
49614;SDS011;35517;45.272;9.984;2022-09-21T08:50:32;2.38;;;0.47;;
49614;SDS011;35517;45.272;9.984;2022-09-21T08:53:01;3.92;;;0.60;;
49614;SDS011;35517;45.272;9.984;2022-09-21T08:55:29;3.78;;;0.38;;
49614;SDS011;35517;45.272;9.984;2022-09-21T08:57:55;6.03;;;0.70;;
49614;SDS011;35517;45.272;9.984;2022-09-21T09:00:23;2.38;;;0.15;;
49614;SDS011;35517;45.272;9.984;2022-09-21T09:03:10;3.10;;;0.40;;
49614;SDS011;35517;45.272;9.984;2022-09-21T09:11:01;10.43;;;0.80;;
49614;SDS011;35517;45.272;9.984;2022-09-21T09:23:51;1.88;;;0.45;;
49614;SDS011;35517;45.272;9.984;2022-09-21T09:26:24;1.92;;;0.20;;
49614;SDS011;35517;45.272;9.984;2022-09-21T09:28:54;3.13;;;0.75;;
49614;SDS011;35517;45.272;9.984;2022-09-21T09:31:33;8.82;;;0.60;;
49614;SDS011;35517;45.272;9.984;2022-09-21T09:34:10;1.00;;;0.20;;
49614;SDS011;35517;45.272;9.984;2022-09-21T09:36:38;1.25;;;0.30;;
49614;SDS011;35517;45.272;9.984;2022-09-21T09:39:13;1.27;;;0.40;;
49614;SDS011;35517;45.272;9.984;2022-09-21T09:42:01;1.25;;;0.50;;
49614;SDS011;35517;45.272;9.984;2022-09-21T09:52:19;3.90;;;0.40;;
49614;SDS011;35517;45.272;9.984;2022-09-21T09:54:46;1.05;;;0.40;;
49614;SDS011;35517;45.272;9.984;2022-09-21T09:57:13;1.65;;;0.30;;
49614;SDS011;35517;45.272;9.984;2022-09-21T10:05:02;1.63;;;0.82;;
49614;SDS011;35517;45.272;9.984;2022-09-21T10:07:43;1.95;;;0.50;;
49614;SDS011;35517;45.272;9.984;2022-09-21T10:13:01;2.05;;;0.77;;
49614;SDS011;35517;45.272;9.984;2022-09-21T10:15:28;4.78;;;0.70;;
49614;SDS011;35517;45.272;9.984;2022-09-21T10:18:04;2.15;;;0.68;;
49614;SDS011;35517;45.272;9.984;2022-09-21T10:20:31;2.10;;;0.80;;
49614;SDS011;35517;45.272;9.984;2022-09-21T10:22:58;4.40;;;0.65;;
49614;SDS011;35517;45.272;9.984;2022-09-21T10:25:25;3.42;;;0.50;;
49614;SDS011;35517;45.272;9.984;2022-09-21T10:27:52;1.08;;;0.63;;
49614;SDS011;35517;45.272;9.984;2022-09-21T10:30:36;1.25;;;0.52;;
49614;SDS011;35517;45.272;9.984;2022-09-21T10:33:06;0.90;;;0.50;;
49614;SDS011;35517;45.272;9.984;2022-09-21T10:35:49;4.70;;;0.55;;
49614;SDS011;35517;45.272;9.984;2022-09-21T10:38:17;2.17;;;0.30;;
49614;SDS011;35517;45.272;9.984;2022-09-21T10:40:43;3.75;;;0.60;;
49614;SDS011;35517;45.272;9.984;2022-09-21T10:43:32;3.50;;;0.60;;
49614;SDS011;35517;45.272;9.984;2022-09-21T10:45:59;11.05;;;0.88;;
49614;SDS011;35517;45.272;9.984;2022-09-21T10:48:43;3.13;;;0.80;;
49614;SDS011;35517;45.272;9.984;2022-09-21T10:51:19;1.92;;;0.95;;
49614;SDS011;35517;45.272;9.984;2022-09-21T10:53:48;4.20;;;0.88;;
49614;SDS011;35517;45.272;9.984;2022-09-21T10:56:15;4.25;;;1.23;;
49614;SDS011;35517;45.272;9.984;2022-09-21T11:01:30;3.10;;;0.80;;
49614;SDS011;35517;45.272;9.984;2022-09-21T11:06:46;3.38;;;0.80;;
49614;SDS011;35517;45.272;9.984;2022-09-21T11:09:19;0.93;;;0.80;;
49614;SDS011;35517;45.272;9.984;2022-09-21T11:19:43;1.63;;;0.90;;
49614;SDS011;35517;45.272;9.984;2022-09-21T11:22:21;5.88;;;1.20;;
49614;SDS011;35517;45.272;9.984;2022-09-21T11:27:36;2.80;;;0.93;;
49614;SDS011;35517;45.272;9.984;2022-09-21T11:37:55;1.25;;;0.73;;
49614;SDS011;35517;45.272;9.984;2022-09-21T11:55:56;1.30;;;0.50;;
49614;SDS011;35517;45.272;9.984;2022-09-21T12:06:28;1.50;;;0.50;;
49614;SDS011;35517;45.272;9.984;2022-09-21T12:14:37;2.85;;;0.40;;
49614;SDS011;35517;45.272;9.984;2022-09-21T12:19:40;2.47;;;0.50;;
49614;SDS011;35517;45.272;9.984;2022-09-21T12:22:25;2.67;;;0.30;;
49614;SDS011;35517;45.272;9.984;2022-09-21T12:24:58;6.65;;;0.85;;
49614;SDS011;35517;45.272;9.984;2022-09-21T12:30:15;2.28;;;0.38;;
49614;SDS011;35517;45.272;9.984;2022-09-21T12:33:05;5.30;;;0.50;;
49614;SDS011;35517;45.272;9.984;2022-09-21T12:46:00;4.20;;;0.57;;
49614;SDS011;35517;45.272;9.984;2022-09-21T12:48:35;0.65;;;0.38;;
49614;SDS011;35517;45.272;9.984;2022-09-21T12:53:53;1.15;;;0.60;;
49614;SDS011;35517;45.272;9.984;2022-09-21T13:04:11;0.73;;;0.30;;
49614;SDS011;35517;45.272;9.984;2022-09-21T13:09:26;2.05;;;0.57;;
49614;SDS011;35517;45.272;9.984;2022-09-21T13:11:54;2.88;;;0.47;;
49614;SDS011;35517;45.272;9.984;2022-09-21T13:14:23;3.45;;;0.50;;
49614;SDS011;35517;45.272;9.984;2022-09-21T13:16:54;4.55;;;0.88;;
49614;SDS011;35517;45.272;9.984;2022-09-21T13:19:22;7.38;;;1.25;;
49614;SDS011;35517;45.272;9.984;2022-09-21T13:22:09;1.50;;;0.22;;
49614;SDS011;35517;45.272;9.984;2022-09-21T13:24:40;6.50;;;1.20;;
49614;SDS011;35517;45.272;9.984;2022-09-21T13:27:07;0.65;;;0.15;;
49614;SDS011;35517;45.272;9.984;2022-09-21T13:29:35;3.35;;;0.45;;
49614;SDS011;35517;45.272;9.984;2022-09-21T13:34:38;3.75;;;0.60;;
49614;SDS011;35517;45.272;9.984;2022-09-21T13:47:38;1.63;;;0.32;;
49614;SDS011;35517;45.272;9.984;2022-09-21T13:52:44;1.42;;;0.40;;
49614;SDS011;35517;45.272;9.984;2022-09-21T14:02:39;4.78;;;0.30;;
49614;SDS011;35517;45.272;9.984;2022-09-21T14:05:15;2.05;;;0.50;;
49614;SDS011;35517;45.272;9.984;2022-09-21T14:07:44;3.10;;;0.77;;
49614;SDS011;35517;45.272;9.984;2022-09-21T14:10:17;6.32;;;0.90;;
49614;SDS011;35517;45.272;9.984;2022-09-21T14:12:44;4.32;;;0.70;;
49614;SDS011;35517;45.272;9.984;2022-09-21T14:20:29;4.53;;;0.40;;
49614;SDS011;35517;45.272;9.984;2022-09-21T14:28:44;6.82;;;0.60;;
49614;SDS011;35517;45.272;9.984;2022-09-21T14:31:31;4.70;;;0.52;;
49614;SDS011;35517;45.272;9.984;2022-09-21T14:34:00;2.45;;;0.43;;
49614;SDS011;35517;45.272;9.984;2022-09-21T14:36:32;3.20;;;0.35;;
49614;SDS011;35517;45.272;9.984;2022-09-21T14:39:02;0.98;;;0.73;;
49614;SDS011;35517;45.272;9.984;2022-09-21T14:41:31;0.50;;;0.20;;
49614;SDS011;35517;45.272;9.984;2022-09-21T14:43:59;5.68;;;0.90;;
49614;SDS011;35517;45.272;9.984;2022-09-21T14:59:25;2.30;;;0.38;;
49614;SDS011;35517;45.272;9.984;2022-09-21T15:01:59;3.92;;;0.60;;
49614;SDS011;35517;45.272;9.984;2022-09-21T15:17:37;2.95;;;1.08;;
49614;SDS011;35517;45.272;9.984;2022-09-21T15:20:19;5.30;;;0.93;;
49614;SDS011;35517;45.272;9.984;2022-09-21T15:22:46;4.97;;;0.80;;
49614;SDS011;35517;45.272;9.984;2022-09-21T15:25:13;5.57;;;1.00;;
49614;SDS011;35517;45.272;9.984;2022-09-21T15:27:41;4.95;;;0.70;;
49614;SDS011;35517;45.272;9.984;2022-09-21T15:30:17;2.45;;;0.32;;
49614;SDS011;35517;45.272;9.984;2022-09-21T15:32:45;5.32;;;0.68;;
49614;SDS011;35517;45.272;9.984;2022-09-21T15:35:19;1.95;;;0.32;;
49614;SDS011;35517;45.272;9.984;2022-09-21T15:37:46;3.28;;;0.82;;
49614;SDS011;35517;45.272;9.984;2022-09-21T15:40:29;1.98;;;0.52;;
49614;SDS011;35517;45.272;9.984;2022-09-21T15:42:58;5.82;;;1.17;;
49614;SDS011;35517;45.272;9.984;2022-09-21T15:45:33;3.47;;;0.50;;
49614;SDS011;35517;45.272;9.984;2022-09-21T15:48:02;1.73;;;0.47;;
49614;SDS011;35517;45.272;9.984;2022-09-21T15:50:32;1.75;;;0.55;;
49614;SDS011;35517;45.272;9.984;2022-09-21T15:53:00;3.88;;;0.73;;
49614;SDS011;35517;45.272;9.984;2022-09-21T15:55:29;1.38;;;0.20;;
49614;SDS011;35517;45.272;9.984;2022-09-21T15:57:58;2.30;;;0.30;;
49614;SDS011;35517;45.272;9.984;2022-09-21T16:00:28;0.95;;;0.32;;
49614;SDS011;35517;45.272;9.984;2022-09-21T16:02:57;3.97;;;0.50;;
49614;SDS011;35517;45.272;9.984;2022-09-21T16:08:17;4.75;;;0.50;;
49614;SDS011;35517;45.272;9.984;2022-09-21T16:10:44;13.63;;;0.90;;
49614;SDS011;35517;45.272;9.984;2022-09-21T16:13:15;6.15;;;0.93;;
49614;SDS011;35517;45.272;9.984;2022-09-21T16:16:06;3.40;;;0.30;;
49614;SDS011;35517;45.272;9.984;2022-09-21T16:21:22;10.50;;;0.50;;
49614;SDS011;35517;45.272;9.984;2022-09-21T16:23:53;6.10;;;0.50;;
49614;SDS011;35517;45.272;9.984;2022-09-21T16:26:21;2.33;;;0.20;;
49614;SDS011;35517;45.272;9.984;2022-09-21T16:28:54;1.88;;;0.20;;
49614;SDS011;35517;45.272;9.984;2022-09-21T16:31:25;2.88;;;0.70;;
49614;SDS011;35517;45.272;9.984;2022-09-21T16:38:52;5.97;;;0.55;;
49614;SDS011;35517;45.272;9.984;2022-09-21T16:41:18;8.73;;;0.65;;
49614;SDS011;35517;45.272;9.984;2022-09-21T16:43:45;4.45;;;0.80;;
49614;SDS011;35517;45.272;9.984;2022-09-21T16:46:13;5.75;;;0.82;;
49614;SDS011;35517;45.272;9.984;2022-09-21T16:48:41;2.63;;;0.40;;
49614;SDS011;35517;45.272;9.984;2022-09-21T16:51:14;3.38;;;0.47;;
49614;SDS011;35517;45.272;9.984;2022-09-21T16:53:49;7.18;;;0.50;;
49614;SDS011;35517;45.272;9.984;2022-09-21T16:56:16;10.68;;;1.00;;
49614;SDS011;35517;45.272;9.984;2022-09-21T16:58:43;5.57;;;0.77;;
49614;SDS011;35517;45.272;9.984;2022-09-21T17:01:14;1.75;;;0.30;;
49614;SDS011;35517;45.272;9.984;2022-09-21T17:06:18;8.15;;;0.50;;
49614;SDS011;35517;45.272;9.984;2022-09-21T17:08:47;4.82;;;0.50;;
49614;SDS011;35517;45.272;9.984;2022-09-21T17:11:15;6.70;;;0.45;;
49614;SDS011;35517;45.272;9.984;2022-09-21T17:13:45;5.10;;;0.57;;
49614;SDS011;35517;45.272;9.984;2022-09-21T17:16:12;15.05;;;0.75;;
49614;SDS011;35517;45.272;9.984;2022-09-21T17:18:41;13.07;;;0.70;;
49614;SDS011;35517;45.272;9.984;2022-09-21T17:21:08;16.17;;;0.95;;
49614;SDS011;35517;45.272;9.984;2022-09-21T17:23:35;16.17;;;1.45;;
49614;SDS011;35517;45.272;9.984;2022-09-21T17:26:01;17.75;;;1.70;;
49614;SDS011;35517;45.272;9.984;2022-09-21T17:28:28;12.93;;;1.30;;
49614;SDS011;35517;45.272;9.984;2022-09-21T17:30:55;14.65;;;0.98;;
49614;SDS011;35517;45.272;9.984;2022-09-21T17:33:22;24.23;;;2.22;;
49614;SDS011;35517;45.272;9.984;2022-09-21T17:35:50;22.63;;;1.70;;
49614;SDS011;35517;45.272;9.984;2022-09-21T17:38:20;24.15;;;1.50;;
49614;SDS011;35517;45.272;9.984;2022-09-21T17:40:46;22.50;;;1.75;;
49614;SDS011;35517;45.272;9.984;2022-09-21T17:43:29;26.17;;;2.35;;
49614;SDS011;35517;45.272;9.984;2022-09-21T17:48:29;34.28;;;2.97;;
49614;SDS011;35517;45.272;9.984;2022-09-21T17:50:55;18.27;;;1.55;;
49614;SDS011;35517;45.272;9.984;2022-09-21T17:53:22;18.85;;;1.23;;
49614;SDS011;35517;45.272;9.984;2022-09-21T17:56:02;19.73;;;1.63;;
49614;SDS011;35517;45.272;9.984;2022-09-21T17:58:37;37.70;;;2.50;;
49614;SDS011;35517;45.272;9.984;2022-09-21T18:03:50;11.68;;;1.52;;
49614;SDS011;35517;45.272;9.984;2022-09-21T18:06:16;10.00;;;1.60;;
49614;SDS011;35517;45.272;9.984;2022-09-21T18:08:43;12.27;;;0.73;;
49614;SDS011;35517;45.272;9.984;2022-09-21T18:11:17;7.78;;;1.40;;
49614;SDS011;35517;45.272;9.984;2022-09-21T18:13:59;13.80;;;1.30;;
49614;SDS011;35517;45.272;9.984;2022-09-21T18:16:44;9.38;;;1.15;;
49614;SDS011;35517;45.272;9.984;2022-09-21T18:19:26;24.70;;;1.30;;
49614;SDS011;35517;45.272;9.984;2022-09-21T18:22:00;14.60;;;1.50;;
49614;SDS011;35517;45.272;9.984;2022-09-21T18:24:29;3.85;;;1.00;;
49614;SDS011;35517;45.272;9.984;2022-09-21T18:26:56;12.70;;;0.93;;
49614;SDS011;35517;45.272;9.984;2022-09-21T18:32:03;4.60;;;1.00;;
49614;SDS011;35517;45.272;9.984;2022-09-21T18:45:05;19.58;;;1.92;;
49614;SDS011;35517;45.272;9.984;2022-09-21T18:47:39;21.20;;;2.78;;
49614;SDS011;35517;45.272;9.984;2022-09-21T18:55:38;8.77;;;0.70;;
49614;SDS011;35517;45.272;9.984;2022-09-21T18:58:12;6.30;;;0.73;;
49614;SDS011;35517;45.272;9.984;2022-09-21T19:00:41;6.35;;;0.70;;
49614;SDS011;35517;45.272;9.984;2022-09-21T19:03:17;9.27;;;0.70;;
49614;SDS011;35517;45.272;9.984;2022-09-21T19:08:43;6.25;;;0.75;;
49614;SDS011;35517;45.272;9.984;2022-09-21T19:17:15;6.85;;;0.63;;
49614;SDS011;35517;45.272;9.984;2022-09-21T19:25:32;7.68;;;0.80;;
49614;SDS011;35517;45.272;9.984;2022-09-21T19:28:12;5.68;;;1.23;;
49614;SDS011;35517;45.272;9.984;2022-09-21T19:30:42;16.27;;;2.25;;
49614;SDS011;35517;45.272;9.984;2022-09-21T19:33:18;10.07;;;1.20;;
49614;SDS011;35517;45.272;9.984;2022-09-21T19:35:50;11.00;;;1.17;;
49614;SDS011;35517;45.272;9.984;2022-09-21T19:38:17;8.90;;;1.20;;
49614;SDS011;35517;45.272;9.984;2022-09-21T19:40:47;7.50;;;1.67;;